createdAt,value
2023-04-13T00:01:22.407Z,94237.69
2023-04-13T00:03:49.135Z,94225.00
2023-04-13T00:06:15.837Z,94226.72
2023-04-13T00:08:43.788Z,94233.94
2023-04-13T00:11:11.507Z,94233.06
2023-04-13T00:13:43.234Z,94223.91
2023-04-13T00:16:10.595Z,94232.34
2023-04-13T00:18:37.364Z,94245.59
2023-04-13T00:21:04.343Z,94248.63
2023-04-13T00:23:32.105Z,94246.13
2023-04-13T00:26:01.753Z,94258.31
2023-04-13T00:28:29.742Z,94250.88
2023-04-13T00:30:56.548Z,94253.34
2023-04-13T00:33:23.551Z,94258.53
2023-04-13T00:35:50.180Z,94252.69
2023-04-13T00:38:18.207Z,94254.84
2023-04-13T00:40:45.216Z,94259.16
2023-04-13T00:43:11.896Z,94239.31
2023-04-13T00:45:38.976Z,94228.88
2023-04-13T00:48:09.639Z,94239.00
2023-04-13T00:50:36.878Z,94226.28
2023-04-13T00:53:08.127Z,94245.56
2023-04-13T00:55:39.592Z,94253.00
2023-04-13T00:58:06.387Z,94247.94
2023-04-13T01:00:33.055Z,94239.88
2023-04-13T01:03:02.371Z,94235.56
2023-04-13T01:05:54.990Z,94245.13
2023-04-13T01:08:36.902Z,94240.69
2023-04-13T01:11:18.841Z,94240.25
2023-04-13T01:13:59.297Z,94253.97
2023-04-13T01:16:33.171Z,94258.16
2023-04-13T01:19:01.297Z,94256.00
2023-04-13T01:21:30.470Z,94256.66
2023-04-13T01:24:17.050Z,94248.75
2023-04-13T01:26:58.444Z,94238.00
2023-04-13T01:29:27.256Z,94254.03
2023-04-13T01:31:55.273Z,94243.88
2023-04-13T01:34:23.359Z,94250.78
2023-04-13T01:36:50.508Z,94254.44
2023-04-13T01:39:25.484Z,94253.06
2023-04-13T01:41:52.200Z,94252.09
2023-04-13T01:44:18.881Z,94247.56
2023-04-13T01:46:50.461Z,94248.44
2023-04-13T01:49:21.034Z,94236.56
2023-04-13T01:51:50.443Z,94230.88
2023-04-13T01:54:25.960Z,94225.41
2023-04-13T01:56:54.076Z,94240.81
2023-04-13T01:59:22.670Z,94243.94
2023-04-13T02:01:49.401Z,94224.13
2023-04-13T02:04:16.314Z,94247.63
2023-04-13T02:06:43.817Z,94245.03
2023-04-13T02:09:11.126Z,94256.56
2023-04-13T02:11:38.307Z,94252.78
2023-04-13T02:14:05.134Z,94258.06
2023-04-13T02:16:32.243Z,94256.53
2023-04-13T02:18:59.077Z,94253.84
2023-04-13T02:21:25.943Z,94250.16
2023-04-13T02:23:52.951Z,94252.75
2023-04-13T02:26:19.937Z,94242.81
2023-04-13T02:28:46.594Z,94259.84
2023-04-13T02:31:17.090Z,94242.72
2023-04-13T02:33:44.924Z,94234.94
2023-04-13T02:36:11.900Z,94267.69
2023-04-13T02:38:38.690Z,94260.16
2023-04-13T02:41:06.650Z,94266.72
2023-04-13T02:43:33.569Z,94256.59
2023-04-13T02:46:00.394Z,94253.16
2023-04-13T02:48:27.318Z,94270.72
2023-04-13T02:50:54.488Z,94268.66
2023-04-13T02:53:22.056Z,94270.44
2023-04-13T02:55:50.513Z,94276.00
2023-04-13T02:58:17.468Z,94282.03
2023-04-13T03:00:44.754Z,94283.75
2023-04-13T03:03:11.566Z,94270.47
2023-04-13T03:05:39.042Z,94272.91
2023-04-13T03:08:06.389Z,94268.09
2023-04-13T03:10:33.108Z,94282.22
2023-04-13T03:12:59.968Z,94293.53
2023-04-13T03:15:26.609Z,94288.25
2023-04-13T03:17:53.314Z,94295.56
2023-04-13T03:20:23.600Z,94293.31
2023-04-13T03:22:51.666Z,94269.28
2023-04-13T03:25:18.290Z,94312.63
2023-04-13T03:27:44.949Z,94310.03
2023-04-13T03:30:12.069Z,94303.13
2023-04-13T03:32:38.915Z,94300.03
2023-04-13T03:35:06.296Z,94290.81
2023-04-13T03:37:40.340Z,94295.31
2023-04-13T03:40:10.486Z,94301.53
2023-04-13T03:42:37.595Z,94304.53
2023-04-13T03:45:05.189Z,94305.88
2023-04-13T03:47:31.864Z,94302.34
2023-04-13T03:49:58.643Z,94299.75
2023-04-13T03:52:25.412Z,94303.84
2023-04-13T03:54:52.555Z,94296.34
2023-04-13T03:57:19.283Z,94281.00
2023-04-13T03:59:46.179Z,94307.56
2023-04-13T04:02:12.909Z,94297.88
2023-04-13T04:04:40.133Z,94308.63
2023-04-13T04:07:06.857Z,94312.31
2023-04-13T04:09:33.966Z,94287.53
2023-04-13T04:12:01.521Z,94312.69
2023-04-13T04:14:28.197Z,94313.78
2023-04-13T04:16:54.772Z,94304.75
2023-04-13T04:19:21.420Z,94306.72
2023-04-13T04:21:49.864Z,94308.81
2023-04-13T04:24:27.685Z,94313.53
2023-04-13T04:26:55.779Z,94308.25
2023-04-13T04:29:22.473Z,94304.75
2023-04-13T04:31:53.586Z,94320.06
2023-04-13T04:34:20.629Z,94318.69
2023-04-13T04:36:50.545Z,94320.38
2023-04-13T04:39:22.341Z,94325.91
2023-04-13T04:41:54.525Z,94316.19
2023-04-13T04:44:25.305Z,94327.19
2023-04-13T04:46:53.035Z,94326.41
2023-04-13T04:49:21.694Z,94338.50
2023-04-13T04:51:49.371Z,94334.19
2023-04-13T04:54:20.271Z,94327.59
2023-04-13T04:56:48.172Z,94333.63
2023-04-13T04:59:14.964Z,94345.81
2023-04-13T05:01:43.317Z,94336.31
2023-04-13T05:04:10.910Z,94319.84
2023-04-13T05:06:41.106Z,94324.22
2023-04-13T05:09:09.005Z,94325.50
2023-04-13T05:11:36.633Z,94329.22
2023-04-13T05:14:03.656Z,94337.59
2023-04-13T05:16:31.837Z,94334.28
2023-04-13T05:18:58.944Z,94321.44
2023-04-13T05:21:27.128Z,94296.66
2023-04-13T05:23:53.900Z,94329.13
2023-04-13T05:26:20.798Z,94337.09
2023-04-13T05:28:47.429Z,94312.94
2023-04-13T05:31:14.343Z,94326.78
2023-04-13T05:33:41.170Z,94295.19
2023-04-13T05:36:08.383Z,94326.09
2023-04-13T05:38:35.085Z,94328.06
2023-04-13T05:41:03.368Z,94321.44
2023-04-13T05:43:30.468Z,94320.59
2023-04-13T05:45:57.213Z,94313.41
2023-04-13T05:48:24.074Z,94320.06
2023-04-13T05:50:50.851Z,94325.09
2023-04-13T05:53:17.534Z,94323.84
2023-04-13T05:55:45.671Z,94314.66
2023-04-13T05:58:14.114Z,94300.94
2023-04-13T06:00:41.451Z,94319.25
2023-04-13T06:03:08.863Z,94326.97
2023-04-13T06:05:36.839Z,94325.75
2023-04-13T06:08:03.646Z,94308.50
2023-04-13T06:10:30.785Z,94332.00
2023-04-13T06:12:57.434Z,94301.22
2023-04-13T06:15:24.289Z,94284.88
2023-04-13T06:17:53.102Z,94313.72
2023-04-13T06:20:21.142Z,94338.38
2023-04-13T06:22:48.011Z,94329.56
2023-04-13T06:25:15.080Z,94335.94
2023-04-13T06:27:43.510Z,94328.97
2023-04-13T06:30:12.218Z,94302.34
2023-04-13T06:32:39.069Z,94328.81
2023-04-13T06:35:06.352Z,94318.44
2023-04-13T06:37:35.711Z,94342.66
2023-04-13T06:40:15.692Z,94335.63
2023-04-13T06:42:43.662Z,94339.56
2023-04-13T06:45:11.865Z,94338.22
2023-04-13T06:47:41.314Z,94283.94
2023-04-13T06:50:09.580Z,94343.72
2023-04-13T06:52:37.572Z,94312.69
2023-04-13T06:55:05.361Z,94323.34
2023-04-13T06:57:32.200Z,94310.16
2023-04-13T06:59:58.991Z,94317.53
2023-04-13T07:02:28.994Z,94323.47
2023-04-13T07:04:56.621Z,94299.88
2023-04-13T07:07:23.464Z,94321.94
2023-04-13T07:09:50.030Z,94278.28
2023-04-13T07:12:17.279Z,94301.81
2023-04-13T07:14:46.365Z,94314.34
2023-04-13T07:17:13.560Z,94312.44
2023-04-13T07:19:49.945Z,94328.88
2023-04-13T07:22:16.846Z,94331.72
2023-04-13T07:24:43.535Z,94320.69
2023-04-13T07:27:10.182Z,94324.66
2023-04-13T07:29:36.976Z,94318.72
2023-04-13T07:32:06.054Z,94317.88
2023-04-13T07:34:32.813Z,94316.25
2023-04-13T07:36:59.452Z,94314.25
2023-04-13T07:39:26.645Z,94295.69
2023-04-13T07:41:53.316Z,94300.59
2023-04-13T07:44:19.976Z,94313.38
2023-04-13T07:46:47.010Z,94307.72
2023-04-13T07:49:13.677Z,94302.03
2023-04-13T07:51:40.541Z,94308.53
2023-04-13T07:54:07.581Z,94312.09
2023-04-13T07:56:36.265Z,94300.69
2023-04-13T07:59:02.983Z,94290.47
2023-04-13T08:01:29.863Z,94302.41
2023-04-13T08:03:58.254Z,94290.97
2023-04-13T08:06:24.976Z,94295.19
2023-04-13T08:08:53.088Z,94291.41
2023-04-13T08:11:20.063Z,94291.94
2023-04-13T08:13:46.658Z,94284.75
2023-04-13T08:16:14.171Z,94274.28
2023-04-13T08:18:40.877Z,94277.97
2023-04-13T08:21:10.997Z,94280.25
2023-04-13T08:23:42.390Z,94276.75
2023-04-13T08:26:17.209Z,94269.81
2023-04-13T08:28:44.183Z,94258.59
2023-04-13T08:31:10.762Z,94268.28
2023-04-13T08:33:37.372Z,94271.03
2023-04-13T08:36:10.936Z,94262.56
2023-04-13T08:38:38.054Z,94268.53
2023-04-13T08:41:04.846Z,94252.84
2023-04-13T08:43:35.587Z,94258.81
2023-04-13T08:46:05.026Z,94242.88
2023-04-13T08:48:50.073Z,94252.75
2023-04-13T08:51:22.153Z,94262.09
2023-04-13T08:53:49.599Z,94252.72
2023-04-13T08:56:17.102Z,94256.13
2023-04-13T08:58:47.512Z,94245.72
2023-04-13T09:01:17.017Z,94247.22
2023-04-13T09:03:55.665Z,94249.13
2023-04-13T09:06:33.027Z,94252.81
2023-04-13T09:09:00.724Z,94235.03
2023-04-13T09:11:29.278Z,94223.81
2023-04-13T09:13:55.917Z,94216.41
2023-04-13T09:16:23.081Z,94233.34
2023-04-13T09:18:54.649Z,94235.16
2023-04-13T09:21:35.957Z,94235.53
2023-04-13T09:24:02.738Z,94224.63
2023-04-13T09:26:48.421Z,94229.31
2023-04-13T09:29:17.431Z,94226.81
2023-04-13T09:31:45.874Z,94212.19
2023-04-13T09:34:13.874Z,94211.22
2023-04-13T09:36:53.502Z,94216.91
2023-04-13T09:39:30.905Z,94202.00
2023-04-13T09:41:58.715Z,94206.59
2023-04-13T09:44:28.220Z,94190.00
2023-04-13T09:46:59.799Z,94186.66
2023-04-13T09:49:36.478Z,94176.75
2023-04-13T09:52:03.807Z,94193.72
2023-04-13T09:54:30.656Z,94181.09
2023-04-13T09:56:57.869Z,94180.75
2023-04-13T09:59:25.554Z,94176.00
2023-04-13T10:01:54.038Z,94178.41
2023-04-13T10:04:21.576Z,94167.84
2023-04-13T10:06:48.331Z,94167.25
2023-04-13T10:09:16.060Z,94165.22
2023-04-13T10:11:49.816Z,94173.63
2023-04-13T10:14:26.787Z,94159.50
2023-04-13T10:17:07.646Z,94172.06
2023-04-13T10:19:41.225Z,94162.63
2023-04-13T10:22:09.562Z,94171.63
2023-04-13T10:24:37.067Z,94164.13
2023-04-13T10:27:21.624Z,94163.06
2023-04-13T10:29:48.714Z,94158.56
2023-04-13T10:32:28.481Z,94147.59
2023-04-13T10:34:55.979Z,94149.16
2023-04-13T10:37:25.396Z,94148.88
2023-04-13T10:40:07.056Z,94140.56
2023-04-13T10:45:20.725Z,94136.66
2023-04-13T10:47:47.836Z,94145.63
2023-04-13T10:50:22.829Z,94128.69
2023-04-13T10:53:01.980Z,94131.28
2023-04-13T10:55:30.465Z,94130.03
2023-04-13T10:57:58.742Z,94139.25
2023-04-13T11:00:38.391Z,94136.72
2023-04-13T11:03:19.245Z,94127.03
2023-04-13T11:05:47.831Z,94125.81
2023-04-13T11:08:19.382Z,94123.66
2023-04-13T11:10:54.124Z,94114.59
2023-04-13T11:13:21.689Z,94107.22
2023-04-13T11:15:49.694Z,94108.31
2023-04-13T11:18:26.587Z,94103.72
2023-04-13T11:20:53.879Z,94108.38
2023-04-13T11:23:24.050Z,94094.81
2023-04-13T11:25:55.139Z,94101.34
2023-04-13T11:28:23.531Z,94093.25
2023-04-13T11:30:56.810Z,94100.94
2023-04-13T11:33:28.024Z,94106.13
2023-04-13T11:35:59.116Z,94097.03
2023-04-13T11:38:26.439Z,94101.97
2023-04-13T11:41:07.937Z,94092.66
2023-04-13T11:43:42.048Z,94077.50
2023-04-13T11:46:11.016Z,94087.28
2023-04-13T11:48:37.969Z,94085.13
2023-04-13T11:51:05.038Z,94086.06
2023-04-13T11:53:33.735Z,94081.34
2023-04-13T11:56:00.455Z,94083.56
2023-04-13T11:58:27.125Z,94079.72
2023-04-13T12:00:58.189Z,94084.03
2023-04-13T12:03:46.495Z,94071.44
2023-04-13T12:06:20.197Z,94080.50
2023-04-13T12:08:51.718Z,94074.38
2023-04-13T12:11:41.484Z,94067.41
2023-04-13T12:19:23.838Z,94064.00
2023-04-13T12:21:56.129Z,94044.75
2023-04-13T12:24:39.155Z,94050.28
2023-04-13T12:29:39.780Z,94048.81
2023-04-13T12:32:14.440Z,94051.84
2023-04-13T12:34:42.427Z,94036.69
2023-04-13T12:37:11.879Z,94036.47
2023-04-13T12:39:38.729Z,94042.59
2023-04-13T12:42:05.533Z,94035.59
2023-04-13T12:44:34.147Z,94035.03
2023-04-13T12:47:01.190Z,94031.53
2023-04-13T12:49:27.893Z,94028.41
2023-04-13T12:51:54.474Z,94026.75
2023-04-13T12:54:21.098Z,94018.22
2023-04-13T12:56:47.770Z,94007.44
2023-04-13T12:59:14.476Z,94018.59
2023-04-13T13:01:41.398Z,94014.16
2023-04-13T13:04:08.100Z,94009.53
2023-04-13T13:06:35.190Z,94014.88
2023-04-13T13:09:02.045Z,93990.13
2023-04-13T13:11:29.047Z,94001.41
2023-04-13T13:13:55.921Z,94001.00
2023-04-13T13:16:22.810Z,93992.84
2023-04-13T13:18:51.223Z,93981.19
2023-04-13T13:21:19.453Z,93988.63
2023-04-13T13:23:46.374Z,93987.94
2023-04-13T13:28:42.948Z,93988.66
2023-04-13T13:31:09.923Z,93981.47
2023-04-13T13:33:36.792Z,93974.28
2023-04-13T13:36:03.430Z,93968.69
2023-04-13T13:38:30.043Z,93960.72
2023-04-13T13:40:56.794Z,93949.22
2023-04-13T13:43:23.596Z,93958.63
2023-04-13T13:45:50.290Z,93964.63
2023-04-13T13:48:17.028Z,93960.22
2023-04-13T13:50:43.714Z,93944.91
2023-04-13T13:53:10.624Z,93956.16
2023-04-13T13:55:37.486Z,93957.81
2023-04-13T13:58:04.132Z,93955.56
2023-04-13T14:00:31.204Z,93943.28
2023-04-13T14:02:58.143Z,93944.13
2023-04-13T14:05:25.052Z,93946.53
2023-04-13T14:07:51.894Z,93932.06
2023-04-13T14:10:18.921Z,93931.19
2023-04-13T14:12:50.156Z,93930.75
2023-04-13T14:15:17.614Z,93920.38
2023-04-13T14:17:48.391Z,93937.94
2023-04-13T14:20:22.405Z,93932.50
2023-04-13T14:22:49.157Z,93934.25
2023-04-13T14:25:16.233Z,93932.66
2023-04-13T14:27:43.059Z,93935.56
2023-04-13T14:30:10.547Z,93914.13
2023-04-13T14:32:37.530Z,93937.19
2023-04-13T14:35:04.579Z,93904.34
2023-04-13T14:37:31.305Z,93931.00
2023-04-13T14:39:58.309Z,93933.97
2023-04-13T14:42:25.072Z,93941.91
2023-04-13T14:44:52.001Z,93951.72
2023-04-13T14:47:19.213Z,93935.44
2023-04-13T14:49:46.416Z,93936.53
2023-04-13T14:52:14.334Z,93945.97
2023-04-13T14:54:41.968Z,93948.00
2023-04-13T14:57:10.035Z,93943.22
2023-04-13T14:59:37.420Z,93953.38
2023-04-13T15:02:04.377Z,93951.34
2023-04-13T15:04:31.891Z,93957.78
2023-04-13T15:06:58.744Z,93950.56
2023-04-13T15:09:25.718Z,93942.59
2023-04-13T15:11:52.497Z,93961.94
2023-04-13T15:14:19.390Z,93959.56
2023-04-13T15:16:46.345Z,93954.00
2023-04-13T15:19:13.164Z,93947.94
2023-04-13T15:21:39.844Z,93953.72
2023-04-13T15:24:06.836Z,93966.09
2023-04-13T15:26:39.518Z,93959.28
2023-04-13T15:29:09.594Z,93948.75
2023-04-13T15:31:38.903Z,93959.03
2023-04-13T15:34:08.392Z,93962.69
2023-04-13T15:36:36.528Z,93966.19
2023-04-13T15:39:04.685Z,93962.66
2023-04-13T15:41:31.749Z,93965.25
2023-04-13T15:44:00.359Z,93962.03
2023-04-13T15:46:27.723Z,93973.13
2023-04-13T15:48:55.417Z,93964.50
2023-04-13T15:51:22.158Z,93958.06
2023-04-13T15:53:49.238Z,93962.69
2023-04-13T15:56:17.573Z,93948.16
2023-04-13T15:58:44.329Z,93940.94
2023-04-13T16:01:12.000Z,93962.31
2023-04-13T16:03:39.787Z,93954.91
2023-04-13T16:06:07.877Z,93965.38
2023-04-13T16:08:34.880Z,93962.41
2023-04-13T16:11:01.570Z,93959.28
2023-04-13T16:13:41.409Z,93958.91
2023-04-13T16:16:14.869Z,93945.72
2023-04-13T16:18:42.052Z,93947.22
2023-04-13T16:21:08.707Z,93962.88
2023-04-13T16:23:35.700Z,93964.69
2023-04-13T16:26:02.337Z,93959.38
2023-04-13T16:28:29.795Z,93961.38
2023-04-13T16:30:56.690Z,93962.56
2023-04-13T16:33:23.458Z,93958.56
2023-04-13T16:35:51.316Z,93963.91
2023-04-13T16:38:17.962Z,93970.16
2023-04-13T16:40:44.630Z,93968.94
2023-04-13T16:43:11.308Z,93950.56
2023-04-13T16:45:38.039Z,93966.75
2023-04-13T16:48:05.504Z,93961.66
2023-04-13T16:50:32.769Z,93952.75
2023-04-13T16:52:59.727Z,93957.31
2023-04-13T16:55:28.635Z,93939.34
2023-04-13T16:57:56.177Z,93970.25
2023-04-13T17:00:23.411Z,93948.22
2023-04-13T17:02:50.263Z,93956.91
2023-04-13T17:05:17.334Z,93955.47
2023-04-13T17:07:47.020Z,93947.66
2023-04-13T17:10:14.582Z,93954.16
2023-04-13T17:12:41.368Z,93961.50
2023-04-13T17:15:09.520Z,93958.66
2023-04-13T17:17:38.205Z,93963.63
2023-04-13T17:20:06.213Z,93974.56
2023-04-13T17:22:32.948Z,93975.88
2023-04-13T17:25:01.901Z,93976.72
2023-04-13T17:27:28.681Z,93966.94
2023-04-13T17:29:55.422Z,93987.22
2023-04-13T17:32:22.384Z,93978.84
2023-04-13T17:34:49.900Z,93988.34
2023-04-13T17:37:17.835Z,93978.00
2023-04-13T17:39:47.677Z,93987.13
2023-04-13T17:42:15.374Z,93982.53
2023-04-13T17:44:43.108Z,93984.78
2023-04-13T17:47:10.409Z,93997.81
2023-04-13T17:49:38.141Z,93996.56
2023-04-13T17:52:05.034Z,93989.13
2023-04-13T17:54:31.963Z,94007.88
2023-04-13T17:56:58.560Z,93998.88
2023-04-13T17:59:26.029Z,94001.00
2023-04-13T18:01:53.155Z,94013.81
2023-04-13T18:04:20.235Z,93999.63
2023-04-13T18:06:47.179Z,94014.13
2023-04-13T18:09:14.362Z,94007.78
2023-04-13T18:11:41.051Z,94011.81
2023-04-13T18:14:12.291Z,94015.22
2023-04-13T18:16:39.230Z,94008.31
2023-04-13T18:19:06.257Z,94022.63
2023-04-13T18:21:32.938Z,94018.25
2023-04-13T18:24:03.069Z,94016.13
2023-04-13T18:26:29.967Z,94022.91
2023-04-13T18:28:56.588Z,94017.31
2023-04-13T18:31:23.338Z,94031.16
2023-04-13T18:33:50.291Z,94019.28
2023-04-13T18:36:18.114Z,94030.63
2023-04-13T18:38:45.407Z,94015.91
2023-04-13T18:41:12.759Z,94001.81
2023-04-13T18:43:42.529Z,94037.72
2023-04-13T18:46:09.155Z,94035.06
2023-04-13T18:48:36.137Z,94044.72
2023-04-13T18:51:03.776Z,94033.16
2023-04-13T18:53:31.091Z,94046.81
2023-04-13T18:55:58.867Z,94043.13
2023-04-13T18:58:25.851Z,94051.59
2023-04-13T19:00:52.563Z,94045.88
2023-04-13T19:03:19.545Z,94041.63
2023-04-13T19:05:46.438Z,94056.66
2023-04-13T19:08:13.919Z,94057.09
2023-04-13T19:10:41.782Z,94058.69
2023-04-13T19:13:08.590Z,94057.09
2023-04-13T19:15:36.194Z,94068.31
2023-04-13T19:18:04.505Z,94069.38
2023-04-13T19:20:31.702Z,94079.44
2023-04-13T19:22:58.468Z,94079.09
2023-04-13T19:25:25.248Z,94084.59
2023-04-13T19:27:52.017Z,94092.88
2023-04-13T19:30:19.766Z,94094.00
2023-04-13T19:32:49.165Z,94086.66
2023-04-13T19:35:16.389Z,94112.16
2023-04-13T19:37:43.169Z,94112.41
2023-04-13T19:40:13.285Z,94116.97
2023-04-13T19:42:45.030Z,94113.41
2023-04-13T19:45:13.610Z,94109.16
2023-04-13T19:47:41.124Z,94105.34
2023-04-13T19:50:10.327Z,94110.31
2023-04-13T19:52:38.637Z,94114.53
2023-04-13T19:55:05.670Z,94103.81
2023-04-13T19:57:32.676Z,94101.53
2023-04-13T19:59:59.593Z,94102.88
2023-04-13T20:02:26.464Z,94108.72
2023-04-13T20:04:53.960Z,94107.00
2023-04-13T20:07:20.628Z,94106.28
2023-04-13T20:09:47.386Z,94105.59
2023-04-13T20:12:14.243Z,94110.38
2023-04-13T20:14:42.298Z,94099.50
2023-04-13T20:17:09.734Z,94119.88
2023-04-13T20:19:36.661Z,94118.41
2023-04-13T20:22:04.705Z,94108.41
2023-04-13T20:24:31.833Z,94105.19
2023-04-13T20:26:59.051Z,94105.19
2023-04-13T20:29:27.290Z,94114.00
2023-04-13T20:31:54.901Z,94124.69
2023-04-13T20:34:21.997Z,94118.97
2023-04-13T20:36:48.786Z,94114.59
2023-04-13T20:39:18.564Z,94113.59
2023-04-13T20:41:55.237Z,94110.09
2023-04-13T20:44:25.881Z,94119.06
2023-04-13T20:46:56.237Z,94103.41
2023-04-13T20:49:24.079Z,94105.41
2023-04-13T20:51:56.074Z,94116.88
2023-04-13T20:54:23.439Z,94119.13
2023-04-13T20:56:50.580Z,94118.88
2023-04-13T20:59:18.186Z,94108.19
2023-04-13T21:01:45.219Z,94112.91
2023-04-13T21:04:12.005Z,94111.91
2023-04-13T21:06:38.668Z,94114.94
2023-04-13T21:09:05.674Z,94113.94
2023-04-13T21:11:32.305Z,94113.94
2023-04-13T21:13:59.140Z,94111.75
2023-04-13T21:16:26.510Z,94121.44
2023-04-13T21:18:54.317Z,94126.16
2023-04-13T21:21:25.269Z,94119.22
2023-04-13T21:23:53.285Z,94115.47
2023-04-13T21:26:20.697Z,94104.53
2023-04-13T21:28:47.576Z,94101.28
2023-04-13T21:31:14.356Z,94117.47
2023-04-13T21:33:41.303Z,94101.78
2023-04-13T21:38:40.813Z,94112.72
2023-04-13T21:41:17.313Z,94100.28
2023-04-13T21:43:44.385Z,94111.75
2023-04-13T21:46:13.203Z,94107.25
2023-04-13T21:48:40.735Z,94108.22
2023-04-13T21:51:08.109Z,94118.94
2023-04-13T21:53:36.208Z,94118.69
2023-04-13T21:56:03.641Z,94115.94
2023-04-13T21:58:41.024Z,94119.94
2023-04-13T22:01:08.793Z,94104.03
2023-04-13T22:03:37.225Z,94105.75
2023-04-13T22:06:08.642Z,94099.56
2023-04-13T22:08:35.725Z,94101.28
2023-04-13T22:11:03.265Z,94095.06
2023-04-13T22:13:30.288Z,94100.53
2023-04-13T22:15:57.272Z,94097.78
2023-04-13T22:18:24.710Z,94112.69
2023-04-13T22:20:51.326Z,94098.78
2023-04-13T22:23:18.201Z,94099.75
2023-04-13T22:26:01.103Z,94104.00
2023-04-13T22:28:28.824Z,94106.22
2023-04-13T22:30:55.636Z,94100.75
2023-04-13T22:33:22.420Z,94098.75
2023-04-13T22:35:50.764Z,94095.53
2023-04-13T22:38:18.439Z,94103.44
2023-04-13T22:40:45.217Z,94099.00
2023-04-13T22:43:11.976Z,94103.94
2023-04-13T22:45:38.725Z,94106.44
2023-04-13T22:48:05.946Z,94101.47
2023-04-13T22:50:32.633Z,94094.25
2023-04-13T22:52:59.247Z,94093.50
2023-04-13T22:55:26.086Z,94086.56
2023-04-13T22:57:54.225Z,94100.47
2023-04-13T23:00:21.128Z,94083.06
2023-04-13T23:02:50.653Z,94094.22
2023-04-13T23:05:17.798Z,94089.22
2023-04-13T23:07:44.490Z,94097.66
2023-04-13T23:10:11.301Z,94097.66
2023-04-13T23:12:37.993Z,94098.91
2023-04-13T23:15:05.083Z,94095.88
2023-04-13T23:17:32.078Z,94082.41
2023-04-13T23:19:58.807Z,94101.06
2023-04-13T23:22:25.485Z,94085.84
2023-04-13T23:24:53.184Z,94094.03
2023-04-13T23:27:19.802Z,94098.69
2023-04-13T23:29:50.078Z,94086.00
2023-04-13T23:32:16.751Z,94073.34
2023-04-13T23:34:43.644Z,94085.97
2023-04-13T23:37:10.628Z,94092.94
2023-04-13T23:39:38.065Z,94090.22
2023-04-13T23:42:04.906Z,94089.25
2023-04-13T23:44:31.590Z,94076.63
2023-04-13T23:46:58.242Z,94075.34
2023-04-13T23:49:24.863Z,94070.63
2023-04-13T23:51:51.494Z,94073.16
2023-04-13T23:54:18.366Z,94081.66
2023-04-13T23:56:45.052Z,94068.28
2023-04-13T23:59:12.077Z,94086.16
